sensor_id;sensor_type;location;lat;lon;timestamp;P1;durP1;ratioP1;P2;durP2;ratioP2
21814;SDS011;11069;48.988;8.450;2023-05-24T00:00:37;5.00;;;2.72;;
21814;SDS011;11069;48.988;8.450;2023-05-24T00:03:04;4.38;;;3.13;;
21814;SDS011;11069;48.988;8.450;2023-05-24T00:05:30;6.82;;;3.10;;
21814;SDS011;11069;48.988;8.450;2023-05-24T00:07:57;2.83;;;2.53;;
21814;SDS011;11069;48.988;8.450;2023-05-24T00:10:23;4.30;;;2.85;;
21814;SDS011;11069;48.988;8.450;2023-05-24T00:12:49;3.63;;;2.83;;
21814;SDS011;11069;48.988;8.450;2023-05-24T00:15:15;4.47;;;2.80;;
21814;SDS011;11069;48.988;8.450;2023-05-24T00:17:41;3.67;;;3.17;;
21814;SDS011;11069;48.988;8.450;2023-05-24T00:20:08;4.88;;;2.70;;
21814;SDS011;11069;48.988;8.450;2023-05-24T00:22:35;4.13;;;2.95;;
21814;SDS011;11069;48.988;8.450;2023-05-24T00:25:01;6.40;;;3.25;;
21814;SDS011;11069;48.988;8.450;2023-05-24T00:27:27;6.63;;;3.00;;
21814;SDS011;11069;48.988;8.450;2023-05-24T00:29:53;4.65;;;2.78;;
21814;SDS011;11069;48.988;8.450;2023-05-24T00:32:19;6.00;;;3.00;;
21814;SDS011;11069;48.988;8.450;2023-05-24T00:34:45;4.20;;;2.80;;
21814;SDS011;11069;48.988;8.450;2023-05-24T00:37:11;4.05;;;2.83;;
21814;SDS011;11069;48.988;8.450;2023-05-24T00:39:37;5.90;;;2.67;;
21814;SDS011;11069;48.988;8.450;2023-05-24T00:42:03;4.97;;;2.78;;
21814;SDS011;11069;48.988;8.450;2023-05-24T00:44:29;4.60;;;2.97;;
21814;SDS011;11069;48.988;8.450;2023-05-24T00:46:56;3.63;;;2.80;;
21814;SDS011;11069;48.988;8.450;2023-05-24T00:49:22;3.95;;;3.05;;
21814;SDS011;11069;48.988;8.450;2023-05-24T00:51:48;3.88;;;2.67;;
21814;SDS011;11069;48.988;8.450;2023-05-24T00:54:15;5.45;;;2.78;;
21814;SDS011;11069;48.988;8.450;2023-05-24T00:56:42;5.55;;;2.83;;
21814;SDS011;11069;48.988;8.450;2023-05-24T00:59:08;5.10;;;2.92;;
21814;SDS011;11069;48.988;8.450;2023-05-24T01:01:34;3.15;;;2.45;;
21814;SDS011;11069;48.988;8.450;2023-05-24T01:04:01;5.53;;;3.17;;
21814;SDS011;11069;48.988;8.450;2023-05-24T01:06:27;6.82;;;3.05;;
21814;SDS011;11069;48.988;8.450;2023-05-24T01:16:29;6.13;;;3.45;;
21814;SDS011;11069;48.988;8.450;2023-05-24T01:19:01;5.32;;;3.00;;
21814;SDS011;11069;48.988;8.450;2023-05-24T01:29:19;6.28;;;3.35;;
21814;SDS011;11069;48.988;8.450;2023-05-24T01:31:45;4.80;;;3.03;;
21814;SDS011;11069;48.988;8.450;2023-05-24T01:34:11;5.75;;;2.90;;
21814;SDS011;11069;48.988;8.450;2023-05-24T01:36:37;6.15;;;3.35;;
21814;SDS011;11069;48.988;8.450;2023-05-24T01:39:03;4.80;;;2.92;;
21814;SDS011;11069;48.988;8.450;2023-05-24T01:41:40;5.22;;;3.13;;
21814;SDS011;11069;48.988;8.450;2023-05-24T01:44:26;4.22;;;2.83;;
21814;SDS011;11069;48.988;8.450;2023-05-24T01:47:01;5.28;;;2.97;;
21814;SDS011;11069;48.988;8.450;2023-05-24T01:49:31;5.03;;;2.83;;
21814;SDS011;11069;48.988;8.450;2023-05-24T01:52:00;6.88;;;3.60;;
21814;SDS011;11069;48.988;8.450;2023-05-24T01:54:30;6.90;;;3.55;;
21814;SDS011;11069;48.988;8.450;2023-05-24T01:56:56;7.28;;;3.40;;
21814;SDS011;11069;48.988;8.450;2023-05-24T01:59:23;6.22;;;2.78;;
21814;SDS011;11069;48.988;8.450;2023-05-24T02:01:50;5.82;;;3.58;;
21814;SDS011;11069;48.988;8.450;2023-05-24T02:04:16;6.25;;;3.15;;
21814;SDS011;11069;48.988;8.450;2023-05-24T02:06:42;5.32;;;3.15;;
21814;SDS011;11069;48.988;8.450;2023-05-24T02:09:08;8.25;;;3.65;;
21814;SDS011;11069;48.988;8.450;2023-05-24T02:11:34;4.53;;;3.30;;
21814;SDS011;11069;48.988;8.450;2023-05-24T02:14:00;4.18;;;3.15;;
21814;SDS011;11069;48.988;8.450;2023-05-24T02:16:26;5.95;;;3.20;;
21814;SDS011;11069;48.988;8.450;2023-05-24T02:18:54;4.78;;;3.38;;
21814;SDS011;11069;48.988;8.450;2023-05-24T02:21:20;5.90;;;3.38;;
21814;SDS011;11069;48.988;8.450;2023-05-24T02:23:47;5.50;;;3.08;;
21814;SDS011;11069;48.988;8.450;2023-05-24T02:26:13;4.85;;;3.35;;
21814;SDS011;11069;48.988;8.450;2023-05-24T02:28:41;8.57;;;3.55;;
21814;SDS011;11069;48.988;8.450;2023-05-24T02:31:07;6.88;;;3.45;;
21814;SDS011;11069;48.988;8.450;2023-05-24T02:33:33;5.65;;;3.22;;
21814;SDS011;11069;48.988;8.450;2023-05-24T02:36:01;5.00;;;3.55;;
21814;SDS011;11069;48.988;8.450;2023-05-24T02:38:27;4.47;;;3.60;;
21814;SDS011;11069;48.988;8.450;2023-05-24T02:40:53;10.18;;;3.30;;
21814;SDS011;11069;48.988;8.450;2023-05-24T02:43:19;7.38;;;3.88;;
21814;SDS011;11069;48.988;8.450;2023-05-24T02:45:45;6.47;;;3.17;;
21814;SDS011;11069;48.988;8.450;2023-05-24T02:48:11;5.03;;;3.60;;
21814;SDS011;11069;48.988;8.450;2023-05-24T02:50:37;6.63;;;3.63;;
21814;SDS011;11069;48.988;8.450;2023-05-24T02:53:03;6.30;;;3.28;;
21814;SDS011;11069;48.988;8.450;2023-05-24T02:55:29;5.47;;;3.45;;
21814;SDS011;11069;48.988;8.450;2023-05-24T02:57:56;5.47;;;3.20;;
21814;SDS011;11069;48.988;8.450;2023-05-24T03:00:22;5.63;;;3.30;;
21814;SDS011;11069;48.988;8.450;2023-05-24T03:02:48;6.47;;;3.10;;
21814;SDS011;11069;48.988;8.450;2023-05-24T03:05:15;5.38;;;3.45;;
21814;SDS011;11069;48.988;8.450;2023-05-24T03:07:41;6.35;;;3.45;;
21814;SDS011;11069;48.988;8.450;2023-05-24T03:10:07;6.22;;;3.72;;
21814;SDS011;11069;48.988;8.450;2023-05-24T03:12:33;6.18;;;3.03;;
21814;SDS011;11069;48.988;8.450;2023-05-24T03:14:59;6.38;;;3.20;;
21814;SDS011;11069;48.988;8.450;2023-05-24T03:17:25;6.88;;;3.65;;
21814;SDS011;11069;48.988;8.450;2023-05-24T03:19:51;5.95;;;3.25;;
21814;SDS011;11069;48.988;8.450;2023-05-24T03:22:17;7.00;;;3.40;;
21814;SDS011;11069;48.988;8.450;2023-05-24T03:24:43;6.18;;;3.35;;
21814;SDS011;11069;48.988;8.450;2023-05-24T03:27:12;6.10;;;3.47;;
21814;SDS011;11069;48.988;8.450;2023-05-24T03:29:38;5.50;;;3.25;;
21814;SDS011;11069;48.988;8.450;2023-05-24T03:32:04;7.65;;;3.83;;
21814;SDS011;11069;48.988;8.450;2023-05-24T03:34:30;4.80;;;3.67;;
21814;SDS011;11069;48.988;8.450;2023-05-24T03:36:56;5.97;;;3.13;;
21814;SDS011;11069;48.988;8.450;2023-05-24T03:39:22;7.32;;;3.65;;
21814;SDS011;11069;48.988;8.450;2023-05-24T03:41:48;5.88;;;3.70;;
21814;SDS011;11069;48.988;8.450;2023-05-24T03:44:14;7.22;;;3.40;;
21814;SDS011;11069;48.988;8.450;2023-05-24T03:46:40;7.75;;;3.88;;
21814;SDS011;11069;48.988;8.450;2023-05-24T03:49:06;6.70;;;3.75;;
21814;SDS011;11069;48.988;8.450;2023-05-24T03:51:32;9.93;;;3.60;;
21814;SDS011;11069;48.988;8.450;2023-05-24T03:53:58;7.22;;;3.55;;
21814;SDS011;11069;48.988;8.450;2023-05-24T03:56:24;8.25;;;3.58;;
21814;SDS011;11069;48.988;8.450;2023-05-24T03:58:51;7.38;;;3.35;;
21814;SDS011;11069;48.988;8.450;2023-05-24T04:01:17;6.25;;;2.92;;
21814;SDS011;11069;48.988;8.450;2023-05-24T04:03:46;8.38;;;3.50;;
21814;SDS011;11069;48.988;8.450;2023-05-24T04:06:12;8.35;;;3.85;;
21814;SDS011;11069;48.988;8.450;2023-05-24T04:08:38;10.27;;;4.03;;
21814;SDS011;11069;48.988;8.450;2023-05-24T04:11:04;4.82;;;3.30;;
21814;SDS011;11069;48.988;8.450;2023-05-24T04:13:30;4.88;;;3.20;;
21814;SDS011;11069;48.988;8.450;2023-05-24T04:15:56;5.70;;;3.58;;
21814;SDS011;11069;48.988;8.450;2023-05-24T04:18:22;5.78;;;3.33;;
21814;SDS011;11069;48.988;8.450;2023-05-24T04:20:48;5.95;;;3.42;;
21814;SDS011;11069;48.988;8.450;2023-05-24T04:23:14;8.43;;;2.90;;
21814;SDS011;11069;48.988;8.450;2023-05-24T04:25:41;4.93;;;3.30;;
21814;SDS011;11069;48.988;8.450;2023-05-24T04:28:07;6.45;;;3.55;;
21814;SDS011;11069;48.988;8.450;2023-05-24T04:30:34;6.63;;;3.30;;
21814;SDS011;11069;48.988;8.450;2023-05-24T04:33:00;5.35;;;3.20;;
21814;SDS011;11069;48.988;8.450;2023-05-24T04:35:27;7.47;;;3.03;;
21814;SDS011;11069;48.988;8.450;2023-05-24T04:37:54;6.82;;;3.25;;
21814;SDS011;11069;48.988;8.450;2023-05-24T04:40:20;8.32;;;3.50;;
21814;SDS011;11069;48.988;8.450;2023-05-24T04:42:46;5.50;;;3.00;;
21814;SDS011;11069;48.988;8.450;2023-05-24T04:45:13;5.47;;;3.05;;
21814;SDS011;11069;48.988;8.450;2023-05-24T04:47:39;6.93;;;3.30;;
21814;SDS011;11069;48.988;8.450;2023-05-24T04:50:06;5.05;;;2.72;;
21814;SDS011;11069;48.988;8.450;2023-05-24T04:52:32;7.72;;;3.15;;
21814;SDS011;11069;48.988;8.450;2023-05-24T04:55:00;5.28;;;3.10;;
21814;SDS011;11069;48.988;8.450;2023-05-24T04:57:26;5.72;;;3.25;;
21814;SDS011;11069;48.988;8.450;2023-05-24T04:59:52;5.75;;;2.83;;
21814;SDS011;11069;48.988;8.450;2023-05-24T05:02:18;4.13;;;2.67;;
21814;SDS011;11069;48.988;8.450;2023-05-24T05:04:45;5.50;;;2.90;;
21814;SDS011;11069;48.988;8.450;2023-05-24T05:07:11;3.72;;;3.00;;
21814;SDS011;11069;48.988;8.450;2023-05-24T05:09:37;4.40;;;2.70;;
21814;SDS011;11069;48.988;8.450;2023-05-24T05:12:03;8.98;;;3.58;;
21814;SDS011;11069;48.988;8.450;2023-05-24T05:14:29;6.28;;;3.40;;
21814;SDS011;11069;48.988;8.450;2023-05-24T05:16:55;11.40;;;3.65;;
21814;SDS011;11069;48.988;8.450;2023-05-24T05:19:21;7.55;;;3.10;;
21814;SDS011;11069;48.988;8.450;2023-05-24T05:21:47;8.20;;;3.00;;
21814;SDS011;11069;48.988;8.450;2023-05-24T05:24:14;5.75;;;3.15;;
21814;SDS011;11069;48.988;8.450;2023-05-24T05:26:40;7.10;;;3.75;;
21814;SDS011;11069;48.988;8.450;2023-05-24T05:29:06;9.70;;;3.30;;
21814;SDS011;11069;48.988;8.450;2023-05-24T05:31:32;5.00;;;3.42;;
21814;SDS011;11069;48.988;8.450;2023-05-24T05:33:58;7.05;;;3.45;;
21814;SDS011;11069;48.988;8.450;2023-05-24T05:36:24;6.57;;;3.08;;
21814;SDS011;11069;48.988;8.450;2023-05-24T05:38:50;7.53;;;3.13;;
21814;SDS011;11069;48.988;8.450;2023-05-24T05:41:16;7.13;;;3.10;;
21814;SDS011;11069;48.988;8.450;2023-05-24T05:43:42;8.02;;;3.50;;
21814;SDS011;11069;48.988;8.450;2023-05-24T05:46:11;6.40;;;3.28;;
21814;SDS011;11069;48.988;8.450;2023-05-24T05:48:39;8.13;;;3.28;;
21814;SDS011;11069;48.988;8.450;2023-05-24T05:51:05;6.85;;;3.25;;
21814;SDS011;11069;48.988;8.450;2023-05-24T05:53:34;6.55;;;3.17;;
21814;SDS011;11069;48.988;8.450;2023-05-24T05:56:00;6.93;;;3.55;;
21814;SDS011;11069;48.988;8.450;2023-05-24T05:58:26;6.35;;;3.33;;
21814;SDS011;11069;48.988;8.450;2023-05-24T06:00:52;7.03;;;3.30;;
21814;SDS011;11069;48.988;8.450;2023-05-24T06:03:18;8.90;;;3.38;;
21814;SDS011;11069;48.988;8.450;2023-05-24T06:05:43;7.78;;;3.60;;
21814;SDS011;11069;48.988;8.450;2023-05-24T06:08:10;8.52;;;3.30;;
21814;SDS011;11069;48.988;8.450;2023-05-24T06:10:36;7.20;;;3.20;;
21814;SDS011;11069;48.988;8.450;2023-05-24T06:13:02;7.43;;;3.03;;
21814;SDS011;11069;48.988;8.450;2023-05-24T06:15:28;5.55;;;3.05;;
21814;SDS011;11069;48.988;8.450;2023-05-24T06:17:54;6.10;;;3.00;;
21814;SDS011;11069;48.988;8.450;2023-05-24T06:20:20;5.30;;;3.08;;
21814;SDS011;11069;48.988;8.450;2023-05-24T06:22:46;5.90;;;2.80;;
21814;SDS011;11069;48.988;8.450;2023-05-24T06:25:14;6.22;;;2.60;;
21814;SDS011;11069;48.988;8.450;2023-05-24T06:27:43;7.00;;;3.25;;
21814;SDS011;11069;48.988;8.450;2023-05-24T06:30:09;5.55;;;2.67;;
21814;SDS011;11069;48.988;8.450;2023-05-24T06:32:35;5.45;;;3.40;;
21814;SDS011;11069;48.988;8.450;2023-05-24T06:35:01;5.05;;;2.80;;
21814;SDS011;11069;48.988;8.450;2023-05-24T06:37:27;4.45;;;2.90;;
21814;SDS011;11069;48.988;8.450;2023-05-24T06:39:55;7.35;;;3.15;;
21814;SDS011;11069;48.988;8.450;2023-05-24T06:42:20;8.80;;;3.30;;
21814;SDS011;11069;48.988;8.450;2023-05-24T06:44:46;6.03;;;2.70;;
21814;SDS011;11069;48.988;8.450;2023-05-24T06:47:12;7.82;;;3.10;;
21814;SDS011;11069;48.988;8.450;2023-05-24T06:49:38;8.60;;;3.33;;
21814;SDS011;11069;48.988;8.450;2023-05-24T06:52:05;7.20;;;3.00;;
21814;SDS011;11069;48.988;8.450;2023-05-24T06:54:32;9.32;;;2.97;;
21814;SDS011;11069;48.988;8.450;2023-05-24T06:56:58;5.07;;;2.88;;
21814;SDS011;11069;48.988;8.450;2023-05-24T06:59:24;6.72;;;2.92;;
21814;SDS011;11069;48.988;8.450;2023-05-24T07:01:51;9.20;;;3.92;;
21814;SDS011;11069;48.988;8.450;2023-05-24T07:04:21;6.10;;;2.83;;
21814;SDS011;11069;48.988;8.450;2023-05-24T07:06:48;5.13;;;2.80;;
21814;SDS011;11069;48.988;8.450;2023-05-24T07:09:14;5.00;;;2.72;;
21814;SDS011;11069;48.988;8.450;2023-05-24T07:11:40;4.75;;;2.50;;
21814;SDS011;11069;48.988;8.450;2023-05-24T07:14:06;4.70;;;2.70;;
21814;SDS011;11069;48.988;8.450;2023-05-24T07:16:32;4.20;;;2.65;;
21814;SDS011;11069;48.988;8.450;2023-05-24T07:18:58;5.20;;;2.95;;
21814;SDS011;11069;48.988;8.450;2023-05-24T07:21:24;7.65;;;2.83;;
21814;SDS011;11069;48.988;8.450;2023-05-24T07:23:50;7.65;;;3.03;;
21814;SDS011;11069;48.988;8.450;2023-05-24T07:26:16;5.03;;;2.97;;
21814;SDS011;11069;48.988;8.450;2023-05-24T07:28:42;6.60;;;2.70;;
21814;SDS011;11069;48.988;8.450;2023-05-24T07:31:08;5.13;;;2.55;;
21814;SDS011;11069;48.988;8.450;2023-05-24T07:33:35;8.70;;;2.60;;
21814;SDS011;11069;48.988;8.450;2023-05-24T07:36:02;6.30;;;2.85;;
21814;SDS011;11069;48.988;8.450;2023-05-24T07:38:28;8.75;;;3.50;;
21814;SDS011;11069;48.988;8.450;2023-05-24T07:40:55;7.45;;;3.10;;
21814;SDS011;11069;48.988;8.450;2023-05-24T07:43:21;6.50;;;2.63;;
21814;SDS011;11069;48.988;8.450;2023-05-24T07:45:47;5.38;;;2.78;;
21814;SDS011;11069;48.988;8.450;2023-05-24T07:48:13;9.95;;;3.35;;
21814;SDS011;11069;48.988;8.450;2023-05-24T07:50:39;8.75;;;3.35;;
21814;SDS011;11069;48.988;8.450;2023-05-24T07:53:04;4.93;;;2.70;;
21814;SDS011;11069;48.988;8.450;2023-05-24T07:55:31;10.27;;;2.88;;
21814;SDS011;11069;48.988;8.450;2023-05-24T07:57:57;4.70;;;3.00;;
21814;SDS011;11069;48.988;8.450;2023-05-24T08:00:23;6.97;;;2.83;;
21814;SDS011;11069;48.988;8.450;2023-05-24T08:02:49;5.15;;;2.80;;
21814;SDS011;11069;48.988;8.450;2023-05-24T08:05:16;6.25;;;2.83;;
21814;SDS011;11069;48.988;8.450;2023-05-24T08:07:42;6.55;;;3.17;;
21814;SDS011;11069;48.988;8.450;2023-05-24T08:10:08;9.40;;;3.00;;
21814;SDS011;11069;48.988;8.450;2023-05-24T08:12:37;7.10;;;2.88;;
21814;SDS011;11069;48.988;8.450;2023-05-24T08:15:04;4.72;;;2.65;;
21814;SDS011;11069;48.988;8.450;2023-05-24T08:17:30;6.05;;;2.75;;
21814;SDS011;11069;48.988;8.450;2023-05-24T08:19:56;9.60;;;2.83;;
21814;SDS011;11069;48.988;8.450;2023-05-24T08:22:22;5.68;;;2.50;;
21814;SDS011;11069;48.988;8.450;2023-05-24T08:24:48;4.57;;;2.17;;
21814;SDS011;11069;48.988;8.450;2023-05-24T08:27:14;4.65;;;2.25;;
21814;SDS011;11069;48.988;8.450;2023-05-24T08:29:41;6.05;;;2.28;;
21814;SDS011;11069;48.988;8.450;2023-05-24T08:32:07;6.80;;;2.20;;
21814;SDS011;11069;48.988;8.450;2023-05-24T08:34:36;6.57;;;2.60;;
21814;SDS011;11069;48.988;8.450;2023-05-24T08:37:03;7.53;;;2.80;;
21814;SDS011;11069;48.988;8.450;2023-05-24T08:39:29;5.28;;;2.35;;
21814;SDS011;11069;48.988;8.450;2023-05-24T08:41:55;4.38;;;2.28;;
21814;SDS011;11069;48.988;8.450;2023-05-24T08:44:22;5.80;;;2.13;;
21814;SDS011;11069;48.988;8.450;2023-05-24T08:46:49;6.32;;;2.10;;
21814;SDS011;11069;48.988;8.450;2023-05-24T08:49:15;5.10;;;1.98;;
21814;SDS011;11069;48.988;8.450;2023-05-24T08:51:43;8.75;;;2.60;;
21814;SDS011;11069;48.988;8.450;2023-05-24T08:54:09;4.85;;;2.03;;
21814;SDS011;11069;48.988;8.450;2023-05-24T08:56:37;3.92;;;2.08;;
21814;SDS011;11069;48.988;8.450;2023-05-24T08:59:04;5.68;;;2.40;;
21814;SDS011;11069;48.988;8.450;2023-05-24T09:01:30;4.95;;;2.50;;
21814;SDS011;11069;48.988;8.450;2023-05-24T09:03:57;6.07;;;2.33;;
21814;SDS011;11069;48.988;8.450;2023-05-24T09:06:24;5.00;;;2.20;;
21814;SDS011;11069;48.988;8.450;2023-05-24T09:08:51;4.75;;;2.22;;
21814;SDS011;11069;48.988;8.450;2023-05-24T09:11:18;6.38;;;2.65;;
21814;SDS011;11069;48.988;8.450;2023-05-24T09:13:44;3.22;;;2.10;;
21814;SDS011;11069;48.988;8.450;2023-05-24T09:16:11;5.68;;;2.03;;
21814;SDS011;11069;48.988;8.450;2023-05-24T09:18:38;4.20;;;2.20;;
21814;SDS011;11069;48.988;8.450;2023-05-24T09:21:05;5.45;;;2.03;;
21814;SDS011;11069;48.988;8.450;2023-05-24T09:23:33;6.75;;;2.17;;
21814;SDS011;11069;48.988;8.450;2023-05-24T09:26:05;7.18;;;2.17;;
21814;SDS011;11069;48.988;8.450;2023-05-24T09:28:31;6.40;;;2.13;;
21814;SDS011;11069;48.988;8.450;2023-05-24T09:30:58;6.55;;;2.15;;
21814;SDS011;11069;48.988;8.450;2023-05-24T09:33:29;6.20;;;1.92;;
21814;SDS011;11069;48.988;8.450;2023-05-24T09:38:22;9.20;;;2.45;;
21814;SDS011;11069;48.988;8.450;2023-05-24T09:41:10;5.03;;;2.38;;
21814;SDS011;11069;48.988;8.450;2023-05-24T09:43:45;7.47;;;2.75;;
21814;SDS011;11069;48.988;8.450;2023-05-24T09:46:15;5.93;;;2.53;;
21814;SDS011;11069;48.988;8.450;2023-05-24T09:48:54;5.43;;;2.28;;
21814;SDS011;11069;48.988;8.450;2023-05-24T09:51:20;4.38;;;2.03;;
21814;SDS011;11069;48.988;8.450;2023-05-24T09:53:47;5.10;;;2.15;;
21814;SDS011;11069;48.988;8.450;2023-05-24T09:56:15;7.80;;;2.55;;
21814;SDS011;11069;48.988;8.450;2023-05-24T09:58:41;5.55;;;1.83;;
21814;SDS011;11069;48.988;8.450;2023-05-24T10:01:07;5.88;;;1.92;;
21814;SDS011;11069;48.988;8.450;2023-05-24T10:03:38;4.93;;;2.10;;
21814;SDS011;11069;48.988;8.450;2023-05-24T10:06:16;5.70;;;1.90;;
21814;SDS011;11069;48.988;8.450;2023-05-24T10:08:42;2.50;;;1.52;;
21814;SDS011;11069;48.988;8.450;2023-05-24T10:11:08;3.40;;;1.60;;
21814;SDS011;11069;48.988;8.450;2023-05-24T10:13:35;4.53;;;1.77;;
21814;SDS011;11069;48.988;8.450;2023-05-24T10:16:01;5.10;;;2.03;;
21814;SDS011;11069;48.988;8.450;2023-05-24T10:18:27;6.05;;;2.08;;
21814;SDS011;11069;48.988;8.450;2023-05-24T10:20:54;5.55;;;1.67;;
21814;SDS011;11069;48.988;8.450;2023-05-24T10:23:25;6.53;;;2.10;;
21814;SDS011;11069;48.988;8.450;2023-05-24T10:25:53;4.03;;;2.00;;
21814;SDS011;11069;48.988;8.450;2023-05-24T10:28:21;3.95;;;1.73;;
21814;SDS011;11069;48.988;8.450;2023-05-24T10:30:53;5.30;;;1.65;;
21814;SDS011;11069;48.988;8.450;2023-05-24T10:33:24;4.45;;;1.60;;
21814;SDS011;11069;48.988;8.450;2023-05-24T10:35:51;3.90;;;1.67;;
21814;SDS011;11069;48.988;8.450;2023-05-24T10:38:19;7.22;;;2.53;;
21814;SDS011;11069;48.988;8.450;2023-05-24T10:40:45;6.32;;;2.08;;
21814;SDS011;11069;48.988;8.450;2023-05-24T10:43:11;3.28;;;1.80;;
21814;SDS011;11069;48.988;8.450;2023-05-24T10:45:40;4.68;;;1.75;;
21814;SDS011;11069;48.988;8.450;2023-05-24T10:50:41;6.20;;;2.08;;
21814;SDS011;11069;48.988;8.450;2023-05-24T10:53:10;7.38;;;1.95;;
21814;SDS011;11069;48.988;8.450;2023-05-24T10:58:16;3.60;;;1.67;;
21814;SDS011;11069;48.988;8.450;2023-05-24T11:00:42;5.55;;;1.95;;
21814;SDS011;11069;48.988;8.450;2023-05-24T11:03:09;11.63;;;1.90;;
21814;SDS011;11069;48.988;8.450;2023-05-24T11:08:13;4.90;;;1.70;;
21814;SDS011;11069;48.988;8.450;2023-05-24T11:10:39;5.38;;;1.80;;
21814;SDS011;11069;48.988;8.450;2023-05-24T11:13:08;4.25;;;1.77;;
21814;SDS011;11069;48.988;8.450;2023-05-24T11:15:34;6.53;;;1.83;;
21814;SDS011;11069;48.988;8.450;2023-05-24T11:18:12;2.92;;;1.70;;
21814;SDS011;11069;48.988;8.450;2023-05-24T11:20:39;4.85;;;2.08;;
21814;SDS011;11069;48.988;8.450;2023-05-24T11:23:06;4.20;;;2.03;;
21814;SDS011;11069;48.988;8.450;2023-05-24T11:25:38;5.10;;;1.70;;
21814;SDS011;11069;48.988;8.450;2023-05-24T11:28:08;3.17;;;2.15;;
21814;SDS011;11069;48.988;8.450;2023-05-24T11:30:38;3.72;;;2.03;;
21814;SDS011;11069;48.988;8.450;2023-05-24T11:33:04;5.57;;;1.90;;
21814;SDS011;11069;48.988;8.450;2023-05-24T11:35:30;4.03;;;1.75;;
21814;SDS011;11069;48.988;8.450;2023-05-24T11:37:56;4.28;;;1.60;;
21814;SDS011;11069;48.988;8.450;2023-05-24T11:40:22;3.40;;;1.70;;
21814;SDS011;11069;48.988;8.450;2023-05-24T11:42:49;3.35;;;2.00;;
21814;SDS011;11069;48.988;8.450;2023-05-24T11:45:16;2.95;;;1.80;;
21814;SDS011;11069;48.988;8.450;2023-05-24T11:47:47;4.55;;;1.92;;
21814;SDS011;11069;48.988;8.450;2023-05-24T11:50:14;5.03;;;2.17;;
21814;SDS011;11069;48.988;8.450;2023-05-24T11:52:41;6.22;;;2.30;;
21814;SDS011;11069;48.988;8.450;2023-05-24T11:55:09;5.45;;;1.98;;
21814;SDS011;11069;48.988;8.450;2023-05-24T12:00:04;8.63;;;2.72;;
21814;SDS011;11069;48.988;8.450;2023-05-24T12:05:05;6.32;;;1.92;;
21814;SDS011;11069;48.988;8.450;2023-05-24T12:07:33;4.38;;;2.03;;
21814;SDS011;11069;48.988;8.450;2023-05-24T12:10:00;4.75;;;1.83;;
21814;SDS011;11069;48.988;8.450;2023-05-24T12:12:28;7.35;;;2.00;;
21814;SDS011;11069;48.988;8.450;2023-05-24T12:14:54;6.10;;;1.80;;
21814;SDS011;11069;48.988;8.450;2023-05-24T12:17:21;4.20;;;1.73;;
21814;SDS011;11069;48.988;8.450;2023-05-24T12:19:50;7.13;;;1.80;;
21814;SDS011;11069;48.988;8.450;2023-05-24T12:22:16;4.80;;;1.88;;
21814;SDS011;11069;48.988;8.450;2023-05-24T12:24:42;6.43;;;1.90;;
21814;SDS011;11069;48.988;8.450;2023-05-24T12:27:09;4.13;;;2.30;;
21814;SDS011;11069;48.988;8.450;2023-05-24T12:29:36;4.03;;;1.85;;
21814;SDS011;11069;48.988;8.450;2023-05-24T12:32:04;7.88;;;2.15;;
21814;SDS011;11069;48.988;8.450;2023-05-24T12:34:35;6.85;;;2.05;;
21814;SDS011;11069;48.988;8.450;2023-05-24T12:37:01;3.95;;;1.70;;
21814;SDS011;11069;48.988;8.450;2023-05-24T12:39:28;3.75;;;1.77;;
21814;SDS011;11069;48.988;8.450;2023-05-24T12:41:59;4.60;;;1.70;;
21814;SDS011;11069;48.988;8.450;2023-05-24T12:44:35;4.25;;;1.70;;
21814;SDS011;11069;48.988;8.450;2023-05-24T12:47:03;6.18;;;2.17;;
21814;SDS011;11069;48.988;8.450;2023-05-24T12:49:30;7.47;;;2.33;;
21814;SDS011;11069;48.988;8.450;2023-05-24T12:51:56;4.05;;;1.90;;
21814;SDS011;11069;48.988;8.450;2023-05-24T12:54:26;3.75;;;1.77;;
21814;SDS011;11069;48.988;8.450;2023-05-24T12:56:52;9.68;;;1.98;;
21814;SDS011;11069;48.988;8.450;2023-05-24T12:59:19;5.03;;;1.80;;
21814;SDS011;11069;48.988;8.450;2023-05-24T13:01:45;5.50;;;2.00;;
21814;SDS011;11069;48.988;8.450;2023-05-24T13:04:15;5.68;;;1.80;;
21814;SDS011;11069;48.988;8.450;2023-05-24T13:06:42;6.20;;;2.13;;
21814;SDS011;11069;48.988;8.450;2023-05-24T13:09:08;9.77;;;2.25;;
21814;SDS011;11069;48.988;8.450;2023-05-24T13:11:34;5.95;;;1.85;;
21814;SDS011;11069;48.988;8.450;2023-05-24T13:14:04;4.97;;;1.88;;
21814;SDS011;11069;48.988;8.450;2023-05-24T13:16:30;5.68;;;1.92;;
21814;SDS011;11069;48.988;8.450;2023-05-24T13:18:59;5.28;;;1.83;;
21814;SDS011;11069;48.988;8.450;2023-05-24T13:21:25;4.38;;;2.15;;
21814;SDS011;11069;48.988;8.450;2023-05-24T13:23:51;4.90;;;1.85;;
21814;SDS011;11069;48.988;8.450;2023-05-24T13:26:18;4.80;;;1.60;;
21814;SDS011;11069;48.988;8.450;2023-05-24T13:28:43;5.18;;;1.70;;
21814;SDS011;11069;48.988;8.450;2023-05-24T13:31:09;4.20;;;1.90;;
21814;SDS011;11069;48.988;8.450;2023-05-24T13:33:35;3.20;;;1.77;;
21814;SDS011;11069;48.988;8.450;2023-05-24T13:36:01;5.28;;;1.85;;
21814;SDS011;11069;48.988;8.450;2023-05-24T13:38:27;4.22;;;1.50;;
21814;SDS011;11069;48.988;8.450;2023-05-24T13:40:53;8.38;;;1.92;;
21814;SDS011;11069;48.988;8.450;2023-05-24T13:43:20;4.68;;;1.42;;
21814;SDS011;11069;48.988;8.450;2023-05-24T13:45:49;2.97;;;1.45;;
21814;SDS011;11069;48.988;8.450;2023-05-24T13:48:16;6.13;;;2.10;;
21814;SDS011;11069;48.988;8.450;2023-05-24T13:50:42;5.40;;;1.88;;
21814;SDS011;11069;48.988;8.450;2023-05-24T13:53:08;2.67;;;1.65;;
21814;SDS011;11069;48.988;8.450;2023-05-24T13:55:34;2.53;;;1.63;;
21814;SDS011;11069;48.988;8.450;2023-05-24T13:58:02;4.07;;;1.80;;
21814;SDS011;11069;48.988;8.450;2023-05-24T14:00:29;4.65;;;1.80;;
21814;SDS011;11069;48.988;8.450;2023-05-24T14:02:55;2.97;;;1.70;;
21814;SDS011;11069;48.988;8.450;2023-05-24T14:05:22;4.40;;;1.63;;
21814;SDS011;11069;48.988;8.450;2023-05-24T14:07:48;4.60;;;1.80;;
21814;SDS011;11069;48.988;8.450;2023-05-24T14:10:14;3.63;;;1.77;;
21814;SDS011;11069;48.988;8.450;2023-05-24T14:12:40;3.20;;;1.70;;
21814;SDS011;11069;48.988;8.450;2023-05-24T14:15:07;8.23;;;2.35;;
21814;SDS011;11069;48.988;8.450;2023-05-24T14:17:33;3.65;;;2.28;;
21814;SDS011;11069;48.988;8.450;2023-05-24T14:19:59;4.38;;;1.90;;
21814;SDS011;11069;48.988;8.450;2023-05-24T14:22:25;5.47;;;2.17;;
21814;SDS011;11069;48.988;8.450;2023-05-24T14:24:53;4.03;;;1.65;;
21814;SDS011;11069;48.988;8.450;2023-05-24T14:27:19;3.63;;;1.73;;
21814;SDS011;11069;48.988;8.450;2023-05-24T14:29:45;6.75;;;2.10;;
21814;SDS011;11069;48.988;8.450;2023-05-24T14:32:11;4.22;;;2.05;;
21814;SDS011;11069;48.988;8.450;2023-05-24T14:34:37;3.10;;;1.52;;
21814;SDS011;11069;48.988;8.450;2023-05-24T14:37:03;5.63;;;1.67;;
21814;SDS011;11069;48.988;8.450;2023-05-24T14:39:29;2.38;;;1.55;;
21814;SDS011;11069;48.988;8.450;2023-05-24T14:41:55;4.47;;;2.45;;
21814;SDS011;11069;48.988;8.450;2023-05-24T14:44:21;4.25;;;1.77;;
21814;SDS011;11069;48.988;8.450;2023-05-24T14:46:47;4.38;;;1.75;;
21814;SDS011;11069;48.988;8.450;2023-05-24T14:49:13;5.45;;;1.98;;
21814;SDS011;11069;48.988;8.450;2023-05-24T14:51:39;3.97;;;1.95;;
21814;SDS011;11069;48.988;8.450;2023-05-24T14:54:05;4.80;;;2.05;;
21814;SDS011;11069;48.988;8.450;2023-05-24T14:56:31;3.78;;;2.25;;
21814;SDS011;11069;48.988;8.450;2023-05-24T14:58:57;4.75;;;2.15;;
21814;SDS011;11069;48.988;8.450;2023-05-24T15:01:24;5.25;;;2.00;;
21814;SDS011;11069;48.988;8.450;2023-05-24T15:03:50;3.58;;;2.05;;
21814;SDS011;11069;48.988;8.450;2023-05-24T15:06:16;6.20;;;2.47;;
21814;SDS011;11069;48.988;8.450;2023-05-24T15:08:42;5.22;;;1.88;;
21814;SDS011;11069;48.988;8.450;2023-05-24T15:11:08;3.25;;;1.52;;
21814;SDS011;11069;48.988;8.450;2023-05-24T15:13:35;4.65;;;1.90;;
21814;SDS011;11069;48.988;8.450;2023-05-24T15:16:02;3.53;;;1.70;;